Aérodrome :







RETROUVEZ-NOUS SUR...

 
LOGIN :

S'inscrire | Disclaimer

   EN    FR    IT 

 









Légende :    VFR   VFR Marginal   IFR   IFR Intensif   IFR Très Intensif
Visi : 
Plafond : 
>= 8 km
>= 3000ft
5 à 8 km
1000 à 3000 ft
1500m à 5 km
500 à 1000 ft
800 à 1500m
200 à 500 ft
< 800m
< 200 ft
Symboles :   Orages  Brouillard  Fortes neiges  Fortes précipitations  Vent > 20 kt






- Altitude de l'aérodrome : 169 ft
- Code IATA : BGI


TBPB - Grantley Adams Int.

DERNIER METAR :
  • 210300Z 09015KT 9999 BKN020 26/20 Q1015 NOSIG

METARs EXPIRÉS :
  • 210200Z 09017KT 9999 VCSH BKN018 26/20 Q1015 NOSIG
  • 210100Z 07010KT 9999 FEW024 25/20 Q1014 NOSIG

TAF TAF TBPB
Valide du 21 à 00h jusqu'au 22 à 00h UTC


202300Z 2100/2124 09016KT 9999 SCT020
PROB30
TEMPO 2100/2103 BKN015



MET'MAP, la Météo Aéronautique d'un coup d'oeil ! - Copyright ORBIFLY Décembre 2007 - Disclaimer

ORBIFLY MET'MAP TEAM :

Programmation & Développement : Alexandra Zaïnal
Sur une idée originale de : Baudouin d'Aumeries
Assistance à la programmation : Marc-Olivier Méhu
Soutien technique & logistique : Manuel Goepfert

Contact : metmap@orbifly.com




SOURCES & CREDITS :

   NOAA